Time;durP1;ratioP1;P1;durP2;ratioP2;P2;SDS_P1;SDS_P2;PMS_P1;PMS_P2;Temp;Humidity;BMP_temperature;BMP_pressure;BME280_temperature;BME280_humidity;BME280_pressure;Samples;Min_cycle;Max_cycle;Signal;HPM_P1;HPM_P2
2021/06/22 02:47:45;;;;;;;7.05;5.50;;;;;;;27.00;45.49;94194.84;5125549;27;20869;-51
2021/06/22 02:50:15;;;;;;;7.30;4.47;;;;;;;32.15;34.39;94200.00;5107027;28;20044;-52
2021/06/22 02:52:42;;;;;;;6.70;4.20;;;;;;;34.17;30.46;94194.91;5110841;28;20039;-50
2021/06/22 02:55:20;;;;;;;7.45;3.70;;;;;;;35.17;28.75;94194.69;5104674;28;20366;-50
2021/06/22 02:58:00;;;;;;;5.97;3.75;;;;;;;36.49;26.83;94189.97;5106705;28;20355;-53
2021/06/22 03:00:31;;;;;;;5.07;3.95;;;;;;;36.95;25.88;94200.72;5105952;28;20079;-50
2021/06/22 03:03:02;;;;;;;4.88;3.80;;;;;;;36.92;25.62;94193.47;5091656;28;20055;-48
2021/06/22 03:05:31;;;;;;;5.88;3.92;;;;;;;37.36;24.78;94193.75;5091870;28;20066;-53
2021/06/22 03:07:58;;;;;;;5.05;3.50;;;;;;;37.73;24.55;94197.00;5090566;28;20056;-50
2021/06/22 03:10:26;;;;;;;4.53;3.70;;;;;;;37.57;24.89;94191.97;5105933;28;20462;-53
2021/06/22 03:12:54;;;;;;;4.82;3.83;;;;;;;38.10;23.81;94189.28;5111789;28;20475;-49
2021/06/22 03:15:26;;;;;;;4.65;3.85;;;;;;;38.15;23.85;94201.53;5102112;28;20055;-49
2021/06/22 03:17:54;;;;;;;4.50;4.10;;;;;;;36.36;26.17;94201.03;5091641;28;20040;-50
2021/06/22 03:20:27;;;;;;;4.03;3.60;;;;;;;36.90;25.67;94204.06;5095948;28;20048;-51
2021/06/22 03:22:55;;;;;;;9.13;4.03;;;;;;;37.02;25.45;94200.41;5090486;28;20040;-55
2021/06/22 03:25:23;;;;;;;4.78;3.60;;;;;;;37.21;25.16;94192.88;5090455;28;20048;-52
2021/06/22 03:28:06;;;;;;;4.82;3.75;;;;;;;36.99;25.22;94191.19;5121857;28;20060;-51
2021/06/22 03:31:02;;;;;;;4.63;3.60;;;;;;;36.75;25.24;94202.00;5122662;28;20086;-53
2021/06/22 03:33:29;;;;;;;4.50;4.10;;;;;;;36.91;25.13;94202.88;5107139;27;20071;-51
2021/06/22 03:35:56;;;;;;;8.98;4.18;;;;;;;36.99;25.03;94212.22;5091356;28;20044;-50
2021/06/22 03:38:23;;;;;;;4.57;3.60;;;;;;;36.90;25.32;94202.09;5091225;28;20438;-48
2021/06/22 03:40:50;;;;;;;5.00;3.72;;;;;;;37.07;24.62;94199.78;5108305;28;20055;-50
2021/06/22 03:43:21;;;;;;;3.80;3.50;;;;;;;37.20;24.96;94202.28;5090983;28;20052;-49
2021/06/22 03:45:55;;;;;;;6.70;3.90;;;;;;;37.07;25.35;94199.03;5095532;28;20056;-52
2021/06/22 03:48:24;;;;;;;6.18;4.03;;;;;;;37.34;24.89;94193.47;5090097;28;20044;-51
2021/06/22 03:50:51;;;;;;;4.20;3.60;;;;;;;37.60;24.34;94201.94;5104787;28;20075;-51
2021/06/22 03:53:18;;;;;;;9.63;4.30;;;;;;;37.43;24.37;94206.28;5090850;28;20043;-53
2021/06/22 03:55:47;;;;;;;5.57;3.72;;;;;;;37.42;24.29;94218.38;5083708;28;20047;-50
2021/06/22 03:58:24;;;;;;;5.35;4.10;;;;;;;37.68;24.24;94219.44;5120187;28;20054;-51
2021/06/22 04:00:57;;;;;;;7.05;3.80;;;;;;;37.62;24.20;94224.03;5097999;28;20047;-49
2021/06/22 04:03:32;;;;;;;4.55;4.10;;;;;;;37.45;23.96;94222.91;5096306;28;20056;-49
2021/06/22 04:06:16;;;;;;;7.15;3.83;;;;;;;37.53;24.24;94218.66;5096400;28;20059;-53
2021/06/22 04:08:44;;;;;;;5.20;3.90;;;;;;;37.42;24.55;94219.16;5099053;28;20055;-54
2021/06/22 04:11:18;;;;;;;7.93;4.10;;;;;;;37.43;24.17;94230.81;5092001;28;20048;-43
2021/06/22 04:13:46;;;;;;;4.93;3.95;;;;;;;37.53;24.30;94224.09;5096503;28;20055;-40
2021/06/22 04:16:13;;;;;;;4.40;3.83;;;;;;;37.57;24.61;94224.66;5097239;28;20047;-41
2021/06/22 04:18:43;;;;;;;4.53;3.85;;;;;;;37.27;24.92;94223.78;5097227;28;20052;-40
2021/06/22 04:21:16;;;;;;;5.43;4.05;;;;;;;37.51;24.26;94226.53;5096720;28;20051;-51
2021/06/22 04:23:47;;;;;;;4.32;3.92;;;;;;;37.37;24.81;94224.47;5096965;28;20055;-52
2021/06/22 04:26:17;;;;;;;5.20;3.65;;;;;;;37.51;24.24;94226.53;5098654;28;20059;-50
2021/06/22 04:28:45;;;;;;;7.93;4.05;;;;;;;37.43;24.87;94223.38;5116208;28;20047;-53
2021/06/22 04:31:13;;;;;;;4.88;3.70;;;;;;;37.58;24.36;94226.94;5097185;28;20048;-51
2021/06/22 04:33:40;;;;;;;4.65;3.63;;;;;;;37.49;24.95;94228.97;5096865;28;20040;-50
2021/06/22 04:36:08;;;;;;;9.43;4.22;;;;;;;37.58;24.87;94224.22;5096134;28;20480;-66
2021/06/22 04:38:36;;;;;;;4.47;3.63;;;;;;;37.45;24.86;94244.72;5096934;28;20048;-53
2021/06/22 04:41:03;;;;;;;4.15;3.78;;;;;;;37.56;24.75;94244.97;5096369;28;20482;-53
2021/06/22 04:43:30;;;;;;;4.75;3.67;;;;;;;37.66;24.49;94249.16;5095594;28;20489;-49
2021/06/22 04:45:57;;;;;;;4.90;3.90;;;;;;;37.57;25.06;94246.47;5096526;28;20055;-51
2021/06/22 04:48:24;;;;;;;4.68;3.60;;;;;;;37.79;24.66;94246.97;5096878;28;20048;-49
2021/06/22 04:50:57;;;;;;;4.05;3.60;;;;;;;37.57;24.88;94257.38;5096239;28;20058;-55
2021/06/22 04:53:26;;;;;;;8.85;4.03;;;;;;;37.64;25.22;94246.13;5096579;28;20043;-51
2021/06/22 04:55:53;;;;;;;6.38;3.85;;;;;;;37.86;24.57;94252.06;5096680;28;20055;-51
2021/06/22 05:00:05;;;;;;;10.45;4.43;;;;;;;35.83;28.21;94254.97;5123379;27;20333;-50
2021/06/22 05:02:34;;;;;;;6.40;3.78;;;;;;;38.09;24.70;94252.53;5107596;28;20048;-50
2021/06/22 05:05:05;;;;;;;4.13;3.50;;;;;;;38.43;23.98;94249.22;5092144;28;20451;-52
2021/06/22 05:07:32;;;;;;;6.65;3.95;;;;;;;39.04;23.31;94255.00;5092158;28;20048;-59
2021/06/22 05:10:00;;;;;;;6.13;3.67;;;;;;;37.58;25.43;94248.75;5099668;28;20044;-52
2021/06/22 05:12:27;;;;;;;4.38;3.90;;;;;;;38.00;24.71;94253.34;5112304;28;20044;-53
2021/06/22 05:14:54;;;;;;;5.07;3.88;;;;;;;38.34;24.15;94251.28;5112657;28;20048;-55
2021/06/22 05:17:21;;;;;;;6.25;3.80;;;;;;;38.31;24.58;94258.44;5095917;28;20059;-52
2021/06/22 05:19:48;;;;;;;7.78;4.07;;;;;;;38.71;24.06;94257.16;5097375;28;20044;-55
2021/06/22 05:22:16;;;;;;;8.05;4.00;;;;;;;38.47;24.54;94252.50;5111967;28;20051;-55
2021/06/22 05:24:43;;;;;;;4.60;3.70;;;;;;;38.67;23.81;94246.44;5105388;28;20048;-55
2021/06/22 05:27:12;;;;;;;3.88;3.47;;;;;;;38.74;23.75;94253.50;5101271;28;20070;-56
2021/06/22 05:29:44;;;;;;;4.68;3.65;;;;;;;38.78;23.90;94262.28;5112295;28;20051;-54
2021/06/22 05:32:11;;;;;;;5.47;3.60;;;;;;;38.98;23.94;94253.38;5111797;28;20054;-54
2021/06/22 05:34:38;;;;;;;5.20;3.70;;;;;;;38.95;23.77;94255.09;5111957;28;20047;-55
2021/06/22 05:37:05;;;;;;;6.53;3.53;;;;;;;39.13;24.04;94260.38;5101434;28;20048;-54
2021/06/22 05:39:32;;;;;;;8.45;3.22;;;;;;;39.40;23.62;94261.25;5094513;28;20066;-54
2021/06/22 05:42:00;;;;;;;4.20;3.55;;;;;;;39.45;23.76;94257.84;5111323;28;20050;-54
2021/06/22 05:44:27;;;;;;;4.15;3.42;;;;;;;39.41;23.85;94262.75;5111689;28;20078;-56
2021/06/22 05:46:54;;;;;;;5.10;3.47;;;;;;;39.70;23.54;94259.97;5109930;28;20044;-50
2021/06/22 05:49:21;;;;;;;3.53;3.22;;;;;;;39.76;23.37;94265.50;5092485;28;20040;-54
2021/06/22 05:51:48;;;;;;;4.85;3.55;;;;;;;39.72;23.37;94254.75;5111315;28;20043;-54
2021/06/22 05:54:15;;;;;;;4.43;3.40;;;;;;;39.90;23.55;94258.47;5111757;28;20362;-55
2021/06/22 05:56:42;;;;;;;5.10;3.40;;;;;;;40.04;23.37;94252.19;5111166;28;20074;-50
2021/06/22 05:59:09;;;;;;;8.98;3.53;;;;;;;40.18;23.01;94254.09;5111504;28;20047;-57
2021/06/22 06:01:37;;;;;;;5.63;3.47;;;;;;;40.18;23.15;94245.88;5103281;28;20063;-54
2021/06/22 06:04:04;;;;;;;6.18;3.70;;;;;;;40.19;22.96;94241.91;5123868;28;20454;-56
2021/06/22 06:06:31;;;;;;;4.10;3.33;;;;;;;40.53;22.91;94253.22;5090893;28;20051;-56
2021/06/22 06:08:58;;;;;;;5.05;3.22;;;;;;;40.63;22.47;94246.38;5089838;28;20366;-56
2021/06/22 06:11:26;;;;;;;4.80;3.40;;;;;;;40.61;22.60;94248.84;5094901;28;20039;-55
2021/06/22 06:13:53;;;;;;;4.60;3.47;;;;;;;40.75;22.61;94231.53;5097550;28;20078;-54
2021/06/22 06:16:21;;;;;;;7.43;3.42;;;;;;;41.04;22.41;94248.97;5097544;28;20122;-55
2021/06/22 06:18:48;;;;;;;8.00;3.30;;;;;;;41.22;22.04;94257.59;5097401;28;20044;-55
2021/06/22 06:21:15;;;;;;;5.60;3.60;;;;;;;41.13;21.88;94254.28;5094877;28;20051;-54
2021/06/22 06:23:44;;;;;;;7.15;3.50;;;;;;;41.30;21.73;94263.38;5077033;28;20055;-54
2021/06/22 06:26:14;;;;;;;6.32;3.30;;;;;;;41.30;21.80;94260.66;5078155;28;20137;-56
2021/06/22 06:28:46;;;;;;;15.25;3.85;;;;;;;41.66;21.86;94261.16;5097123;28;20040;-54
2021/06/22 06:31:13;;;;;;;5.07;3.30;;;;;;;41.68;21.31;94264.16;5095047;28;20122;-55
2021/06/22 06:33:40;;;;;;;7.47;3.45;;;;;;;42.38;20.76;94266.94;5097115;28;20374;-54
2021/06/22 06:36:08;;;;;;;8.48;4.03;;;;;;;42.44;20.39;94281.44;5097359;28;20397;-53
2021/06/22 06:38:35;;;;;;;7.22;4.05;;;;;;;42.40;20.97;94283.66;5080971;28;20443;-54
2021/06/22 06:41:02;;;;;;;8.82;3.88;;;;;;;42.03;21.23;94272.78;5090209;28;20105;-54
2021/06/22 06:43:29;;;;;;;8.30;4.10;;;;;;;42.23;20.51;94282.13;5096853;28;20047;-53
2021/06/22 06:45:56;;;;;;;5.97;3.90;;;;;;;42.31;20.33;94277.66;5096988;28;20082;-52
2021/06/22 06:48:25;;;;;;;7.53;4.03;;;;;;;42.36;20.53;94283.16;5097174;28;20036;-52
2021/06/22 06:50:52;;;;;;;8.60;4.18;;;;;;;42.44;20.62;94291.69;5096449;28;20052;-54
2021/06/22 06:53:19;;;;;;;8.38;3.97;;;;;;;42.17;20.55;94285.63;5096720;28;20065;-55
2021/06/22 06:55:47;;;;;;;5.53;3.88;;;;;;;42.63;20.42;94287.25;5096832;28;20051;-55
2021/06/22 06:58:15;;;;;;;8.50;4.00;;;;;;;42.76;20.14;94293.03;5095931;28;20477;-56
2021/06/22 07:00:42;;;;;;;8.45;4.13;;;;;;;42.82;19.84;94289.53;5096500;28;20064;-53
2021/06/22 07:03:09;;;;;;;9.10;4.40;;;;;;;42.94;20.15;94291.06;5095444;28;20050;-55
2021/06/22 07:05:36;;;;;;;6.93;4.00;;;;;;;43.07;19.86;94296.81;5096689;28;20343;-56
2021/06/22 07:08:04;;;;;;;8.57;4.03;;;;;;;43.23;19.89;94290.56;5084236;28;20040;-55
2021/06/22 07:10:32;;;;;;;4.10;3.65;;;;;;;43.33;19.58;94300.09;5084312;28;20170;-56
2021/06/22 07:13:04;;;;;;;4.97;3.88;;;;;;;43.49;19.54;94295.09;5095342;28;20040;-57
2021/06/22 07:15:31;;;;;;;6.63;3.88;;;;;;;43.63;19.06;94300.28;5096466;28;20366;-54
2021/06/22 07:17:59;;;;;;;7.68;4.13;;;;;;;43.32;19.04;94309.59;5096253;28;20489;-54
2021/06/22 07:20:26;;;;;;;10.88;4.45;;;;;;;43.30;19.29;94306.59;5095794;28;20044;-54
2021/06/22 07:22:54;;;;;;;10.13;4.35;;;;;;;43.57;19.31;94299.56;5095167;28;20087;-54
2021/06/22 07:25:25;;;;;;;8.65;4.38;;;;;;;43.57;19.24;94307.06;5096240;28;20044;-53
2021/06/22 07:27:53;;;;;;;6.60;4.00;;;;;;;43.45;19.22;94300.06;5095781;28;20377;-53
2021/06/22 07:30:23;;;;;;;7.88;4.68;;;;;;;43.74;18.78;94299.56;5095410;28;20039;-55
2021/06/22 07:32:51;;;;;;;7.32;4.47;;;;;;;43.85;18.87;94299.53;5095843;28;20367;-53
2021/06/22 07:35:18;;;;;;;7.85;4.43;;;;;;;43.73;18.83;94295.31;5096057;28;20454;-53
2021/06/22 07:37:46;;;;;;;6.57;4.57;;;;;;;43.90;18.92;94301.50;5095995;28;20048;-57
2021/06/22 07:40:14;;;;;;;6.97;4.57;;;;;;;43.98;18.55;94296.22;5095419;28;20638;-57
2021/06/22 07:42:41;;;;;;;6.40;4.55;;;;;;;44.13;19.04;94301.47;5094892;28;20051;-54
2021/06/22 07:45:09;;;;;;;7.00;4.50;;;;;;;44.29;18.85;94304.16;5094725;28;20043;-53
2021/06/22 07:47:37;;;;;;;8.02;4.55;;;;;;;44.31;19.16;94306.41;5094384;28;20382;-55
2021/06/22 07:50:06;;;;;;;6.93;4.45;;;;;;;44.63;19.07;94297.72;5095748;28;20363;-54
2021/06/22 07:52:33;;;;;;;7.07;4.63;;;;;;;44.54;18.72;94291.28;5095364;28;20074;-53
2021/06/22 07:55:00;;;;;;;7.63;4.63;;;;;;;44.44;18.49;94292.78;5095702;28;20052;-54
2021/06/22 07:57:27;;;;;;;12.95;4.63;;;;;;;44.52;18.87;94304.81;5094970;28;20048;-54
2021/06/22 07:59:54;;;;;;;9.02;4.82;;;;;;;44.67;18.62;94303.72;5095571;28;20051;-54
2021/06/22 08:02:21;;;;;;;11.98;4.72;;;;;;;44.75;18.62;94304.66;5095185;28;20050;-54
2021/06/22 08:04:48;;;;;;;9.07;5.25;;;;;;;44.96;18.62;94308.56;5095528;28;20454;-53
2021/06/22 08:07:16;;;;;;;9.65;4.70;;;;;;;44.96;18.31;94297.53;5095634;28;20050;-55
2021/06/22 08:09:43;;;;;;;5.65;4.38;;;;;;;44.92;18.16;94291.53;5095258;28;20048;-55
2021/06/22 08:12:10;;;;;;;10.02;4.90;;;;;;;44.91;18.15;94295.56;5080951;28;20048;-55
2021/06/22 08:14:38;;;;;;;7.60;5.13;;;;;;;44.84;18.19;94285.81;5075032;28;20052;-53
2021/06/22 08:17:05;;;;;;;10.20;4.75;;;;;;;44.78;18.13;94287.13;5075116;28;20044;-56
2021/06/22 08:19:32;;;;;;;12.10;5.15;;;;;;;45.09;17.87;94281.16;5091969;28;20056;-56
2021/06/22 08:22:02;;;;;;;12.40;5.05;;;;;;;45.09;18.21;94286.66;5095035;28;20059;-54
2021/06/22 08:24:29;;;;;;;13.10;5.55;;;;;;;45.19;17.99;94290.56;5094339;28;20047;-55
2021/06/22 08:26:56;;;;;;;10.63;4.53;;;;;;;45.24;18.04;94280.03;5094678;28;20360;-55
2021/06/22 08:29:23;;;;;;;13.57;5.15;;;;;;;45.10;18.07;94276.38;5094838;28;20775;-55
2021/06/22 08:31:50;;;;;;;10.80;5.47;;;;;;;45.19;17.96;94278.78;5094635;28;20058;-54
2021/06/22 08:34:17;;;;;;;9.63;5.18;;;;;;;45.16;18.39;94286.09;5094708;28;20074;-56
2021/06/22 08:36:44;;;;;;;6.90;5.13;;;;;;;45.43;17.76;94289.16;5095164;28;20051;-55
2021/06/22 08:39:11;;;;;;;8.18;5.13;;;;;;;45.48;18.14;94283.56;5094710;28;20048;-54
2021/06/22 08:41:39;;;;;;;9.32;5.00;;;;;;;45.57;18.00;94271.47;5094617;28;20052;-54
2021/06/22 08:44:09;;;;;;;8.65;5.13;;;;;;;45.67;18.11;94280.91;5094029;28;20044;-55
2021/06/22 08:46:37;;;;;;;8.43;5.37;;;;;;;45.54;17.98;94283.50;5093891;28;20066;-57
2021/06/22 08:49:04;;;;;;;10.60;5.55;;;;;;;45.57;18.05;94276.97;5093642;28;20052;-58
2021/06/22 08:51:31;;;;;;;9.20;5.50;;;;;;;45.74;17.95;94279.56;5093380;28;20347;-56
2021/06/22 08:53:59;;;;;;;9.07;5.65;;;;;;;45.72;18.09;94274.56;5094708;28;20462;-56
2021/06/22 08:56:26;;;;;;;12.45;5.80;;;;;;;45.82;18.63;94277.00;5084028;28;20048;-55
2021/06/22 08:58:53;;;;;;;11.27;5.45;;;;;;;45.93;18.20;94274.09;5094118;28;20056;-55
2021/06/22 09:01:20;;;;;;;13.77;5.68;;;;;;;45.69;18.25;94272.84;5094480;28;20052;-55
2021/06/22 09:03:47;;;;;;;10.90;5.65;;;;;;;45.88;18.22;94283.94;5094936;28;20052;-56
2021/06/22 09:06:14;;;;;;;11.02;5.40;;;;;;;46.00;18.19;94279.81;5094648;28;20052;-55
2021/06/22 09:08:51;;;;;;;13.90;5.30;;;;;;;46.09;18.22;94281.47;5094420;28;20040;-55
2021/06/22 09:11:18;;;;;;;11.60;5.60;;;;;;;46.30;18.14;94278.94;5094488;28;20458;-55
2021/06/22 09:13:57;;;;;;;7.63;5.93;;;;;;;46.04;17.13;94279.50;5094668;28;20443;-55
2021/06/22 09:16:24;;;;;;;12.85;6.15;;;;;;;45.72;17.92;94282.84;5094642;28;20052;-54
2021/06/22 09:18:51;;;;;;;15.18;6.20;;;;;;;45.59;18.27;94273.69;5093259;28;20369;-56
2021/06/22 09:21:22;;;;;;;10.20;6.10;;;;;;;45.55;18.02;94274.00;5094293;28;20064;-55
2021/06/22 09:23:54;;;;;;;9.82;5.72;;;;;;;45.32;17.99;94275.47;5094892;28;20441;-52
2021/06/22 09:26:24;;;;;;;12.32;6.32;;;;;;;45.46;18.13;94279.84;5093156;28;20051;-55
2021/06/22 09:28:53;;;;;;;11.48;5.90;;;;;;;45.47;18.22;94273.06;5093984;28;20052;-57
2021/06/22 09:31:22;;;;;;;11.75;5.90;;;;;;;45.47;18.05;94278.56;5092936;28;20059;-54
2021/06/22 09:33:53;;;;;;;11.15;6.30;;;;;;;44.85;18.35;94276.31;5094396;28;20048;-56
2021/06/22 09:36:21;;;;;;;10.80;6.22;;;;;;;45.52;17.71;94280.53;5094324;28;20040;-54
2021/06/22 09:38:54;;;;;;;10.32;6.10;;;;;;;45.48;17.83;94280.06;5094163;28;20048;-59
2021/06/22 09:41:26;;;;;;;8.32;6.10;;;;;;;45.39;18.12;94283.16;5093987;28;20060;-57
2021/06/22 09:44:02;;;;;;;11.55;6.55;;;;;;;45.03;18.17;94274.94;5094371;28;20055;-55
2021/06/22 09:46:41;;;;;;;16.05;7.10;;;;;;;45.66;18.00;94278.66;5097431;28;20051;-55
2021/06/22 09:49:10;;;;;;;10.73;6.53;;;;;;;45.66;17.78;94273.91;5097917;28;20071;-55
2021/06/22 09:52:01;;;;;;;9.82;6.53;;;;;;;45.44;17.90;94268.56;5096770;28;20362;-58
2021/06/22 09:54:44;;;;;;;12.73;6.68;;;;;;;45.44;18.48;94274.09;5097291;28;20048;-55
2021/06/22 09:57:15;;;;;;;11.50;6.60;;;;;;;45.74;17.74;94269.28;5097467;28;20043;-55
2021/06/22 10:00:03;;;;;;;11.25;6.90;;;;;;;45.60;18.44;94281.47;5097698;28;20427;-56
2021/06/22 10:02:55;;;;;;;18.20;9.48;;;;;;;32.61;36.77;94268.31;5087790;28;20055;-65
2021/06/22 10:05:22;;;;;;;19.95;8.88;;;;;;;32.84;41.08;94280.81;5085992;28;20044;-55
2021/06/22 10:08:01;;;;;;;26.45;9.90;;;;;;;32.64;37.17;94270.91;5077354;28;20051;-45
2021/06/22 10:10:39;;;;;;;34.15;15.90;;;;;;;33.30;36.85;94274.00;5077455;28;20051;-49
2021/06/22 10:13:06;;;;;;;30.60;14.68;;;;;;;32.33;40.74;94265.22;5091443;28;20059;-48
2021/06/22 10:15:33;;;;;;;37.08;12.55;;;;;;;30.68;42.70;94262.09;5079945;28;20040;-56
2021/06/22 10:18:00;;;;;;;36.42;12.55;;;;;;;30.65;42.21;94257.53;5077693;28;20048;-47
2021/06/22 10:20:27;;;;;;;27.35;9.63;;;;;;;31.73;41.42;94275.59;5078430;28;20049;-46
2021/06/22 10:22:55;;;;;;;28.95;8.68;;;;;;;40.40;24.49;94261.06;5110495;27;20055;-46
2021/06/22 10:25:22;;;;;;;26.42;8.57;;;;;;;42.77;22.16;94264.28;5095962;28;20366;-52
2021/06/22 10:27:50;;;;;;;40.13;25.88;;;;;;;42.23;22.74;94257.41;5089060;28;20051;-49
2021/06/22 10:30:19;;;;;;;19.88;12.45;;;;;;;43.29;21.74;94260.34;5079471;28;20041;-53
2021/06/22 10:32:47;;;;;;;26.75;13.55;;;;;;;43.99;20.09;94261.94;5076746;28;20052;-48
2021/06/22 10:35:15;;;;;;;20.13;7.63;;;;;;;43.89;19.77;94261.47;5109722;28;20056;-52
2021/06/22 10:37:56;;;;;;;22.15;7.68;;;;;;;44.53;19.63;94251.19;5109684;28;20041;-47
2021/06/22 10:40:25;;;;;;;17.55;7.55;;;;;;;44.94;19.23;94249.69;5129487;27;20052;-47
2021/06/22 10:42:53;;;;;;;17.13;7.45;;;;;;;45.11;19.25;94259.31;5078907;28;20394;-49
2021/06/22 10:45:21;;;;;;;19.67;7.85;;;;;;;45.31;18.03;94252.66;5080003;28;20041;-47
2021/06/22 10:47:49;;;;;;;13.85;6.68;;;;;;;45.41;18.87;94247.53;5086940;28;20047;-59
2021/06/22 10:50:22;;;;;;;20.13;8.05;;;;;;;45.23;18.96;94253.69;5096673;28;20051;-73
2021/06/22 10:52:51;;;;;;;22.33;7.45;;;;;;;45.45;17.62;94254.25;5096436;28;20052;-53
2021/06/22 10:55:28;;;;;;;18.95;7.88;;;;;;;45.41;18.03;94258.56;5096306;28;20059;-58
2021/06/22 10:58:08;;;;;;;42.17;28.10;;;;;;;45.55;18.15;94246.41;5095175;28;20055;-52
2021/06/22 11:00:41;;;;;;;27.55;16.38;;;;;;;45.36;18.50;94251.84;5096597;28;20044;-58
2021/06/22 11:03:30;;;;;;;21.42;8.43;;;;;;;45.45;18.61;94257.00;5096247;28;20048;-56
2021/06/22 11:06:13;;;;;;;22.52;8.60;;;;;;;45.54;18.48;94244.88;5096093;28;20052;-59
2021/06/22 11:08:42;;;;;;;17.58;7.75;;;;;;;45.58;18.12;94250.88;5096301;28;20055;-55
2021/06/22 11:11:09;;;;;;;19.67;7.90;;;;;;;45.13;18.33;94251.28;5096176;28;20052;-60
2021/06/22 11:13:44;;;;;;;21.30;8.55;;;;;;;45.19;17.94;94248.47;5096566;28;20044;-55
2021/06/22 11:16:17;;;;;;;14.52;6.85;;;;;;;45.24;18.28;94241.41;5096384;28;20339;-55
2021/06/22 11:21:38;;;;;;;10.90;6.93;;;;;;;44.25;20.24;94247.84;5096405;28;20060;-44
2021/06/22 11:26:21;;;;;;;20.92;8.45;;;;;;;38.63;26.39;94242.38;5137887;27;20429;-49
2021/06/22 11:28:58;;;;;;;17.85;8.98;;;;;;;42.48;21.25;94238.03;5126792;28;20355;-52
2021/06/22 11:31:42;;;;;;;24.02;7.85;;;;;;;42.46;21.14;94246.00;5114911;28;20374;-51
2021/06/22 11:34:16;;;;;;;26.98;15.50;;;;;;;43.27;20.06;94236.06;5129896;28;20043;-49
2021/06/22 11:37:07;;;;;;;19.83;7.75;;;;;;;44.06;19.99;94238.63;5094636;28;20048;-52
2021/06/22 11:39:53;;;;;;;23.65;7.72;;;;;;;44.43;18.41;94236.19;5110947;28;20055;-51
2021/06/22 11:42:21;;;;;;;18.65;7.20;;;;;;;44.85;18.59;94231.44;5117247;28;20048;-51
2021/06/22 11:44:51;;;;;;;17.33;6.97;;;;;;;44.65;18.60;94229.06;5102767;28;20047;-53
2021/06/22 11:47:33;;;;;;;22.77;6.90;;;;;;;45.02;18.15;94223.03;5131634;28;20054;-51
2021/06/22 11:50:10;;;;;;;17.73;6.18;;;;;;;45.03;17.53;94224.56;5132702;28;20454;-52
2021/06/22 11:52:39;;;;;;;20.25;7.38;;;;;;;45.12;18.21;94218.69;5132467;28;20434;-51
2021/06/22 11:55:16;;;;;;;16.95;6.47;;;;;;;44.72;17.30;94228.50;5132361;28;20327;-51
2021/06/22 11:57:51;;;;;;;20.02;6.45;;;;;;;44.94;17.39;94228.38;5131780;28;20439;-51
2021/06/22 12:00:28;;;;;;;24.48;6.72;;;;;;;45.42;17.13;94224.19;5132960;28;20050;-54
2021/06/22 12:02:58;;;;;;;16.45;6.20;;;;;;;45.37;17.11;94219.47;5132423;28;20065;-50
2021/06/22 12:05:27;;;;;;;17.45;6.50;;;;;;;45.10;16.49;94219.22;5132190;28;20047;-51
2021/06/22 12:07:55;;;;;;;16.40;6.50;;;;;;;45.18;16.64;94214.63;5130909;28;20043;-49
2021/06/22 12:10:40;;;;;;;21.88;6.38;;;;;;;34.37;29.59;94210.91;5123566;28;20052;-52
2021/06/22 12:13:08;;;;;;;29.35;7.20;;;;;;;32.62;34.52;94215.72;5129302;28;20377;-73
2021/06/22 12:15:44;;;;;;;32.20;7.15;;;;;;;40.96;21.72;94202.81;5125127;28;20070;-46
2021/06/22 12:18:11;;;;;;;32.88;8.70;;;;;;;37.25;26.33;94194.28;5121393;28;20046;-56
2021/06/22 12:20:43;;;;;;;36.50;8.43;;;;;;;36.37;27.30;94207.22;5112415;28;20389;-59
2021/06/22 12:23:17;;;;;;;33.08;7.95;;;;;;;35.52;28.62;94206.88;5110771;28;20058;-57
2021/06/22 12:25:45;;;;;;;29.63;8.38;;;;;;;35.31;28.71;94199.56;5102844;28;20047;-60
2021/06/22 12:28:13;;;;;;;33.75;7.57;;;;;;;34.99;28.01;94200.06;5127846;28;20039;-55
2021/06/22 12:30:46;;;;;;;36.63;8.07;;;;;;;35.18;27.87;94207.09;5111361;28;20048;-58
2021/06/22 12:33:21;;;;;;;29.55;7.13;;;;;;;35.00;26.58;94205.06;5111182;28;20487;-60
2021/06/22 12:35:53;;;;;;;29.30;7.45;;;;;;;35.49;24.79;94199.63;5123709;28;20069;-46
2021/06/22 12:38:22;;;;;;;24.60;6.70;;;;;;;39.47;19.24;94200.69;5107883;28;20044;-47
2021/06/22 12:41:05;;;;;;;27.77;7.03;;;;;;;42.28;17.45;94201.75;5083299;28;20043;-53
2021/06/22 12:43:45;;;;;;;26.92;6.40;;;;;;;42.34;18.37;94197.03;5096646;28;20439;-54
2021/06/22 12:46:23;;;;;;;24.60;6.82;;;;;;;43.14;18.92;94194.56;5102051;28;20048;-50
2021/06/22 12:49:09;;;;;;;21.17;7.05;;;;;;;44.09;17.18;94197.09;5102453;28;20044;-47
2021/06/22 12:51:58;;;;;;;31.60;7.18;;;;;;;44.91;15.80;94201.81;5097303;28;20036;-49
2021/06/22 12:54:27;;;;;;;28.98;7.18;;;;;;;45.27;15.09;94199.00;5100308;28;20055;-52
2021/06/22 12:57:01;;;;;;;23.10;7.55;;;;;;;45.33;14.99;94199.72;5117279;28;20055;-52
2021/06/22 12:59:30;;;;;;;23.58;9.60;;;;;;;45.79;14.90;94204.97;5110752;28;20047;-51
2021/06/22 13:02:04;;;;;;;25.25;7.60;;;;;;;45.70;14.08;94197.06;5096992;28;20044;-48
2021/06/22 13:04:42;;;;;;;23.30;7.53;;;;;;;46.32;13.21;94199.78;5100906;28;20054;-49
2021/06/22 13:07:14;;;;;;;29.70;7.38;;;;;;;46.61;12.92;94200.16;5114491;28;20055;-52
2021/06/22 13:09:42;;;;;;;24.30;6.80;;;;;;;46.68;12.74;94207.84;5097119;28;20067;-53
2021/06/22 13:12:22;;;;;;;25.65;6.50;;;;;;;46.87;13.04;94203.03;5096877;28;20048;-53
2021/06/22 13:14:51;;;;;;;32.97;7.93;;;;;;;46.60;12.53;94206.97;5102770;28;20043;-51
2021/06/22 13:17:23;;;;;;;35.65;8.02;;;;;;;46.65;13.28;94206.88;5116969;28;20058;-51
2021/06/22 13:19:55;;;;;;;25.98;7.05;;;;;;;46.48;13.59;94200.09;5117315;28;20047;-49
2021/06/22 13:22:33;;;;;;;28.02;7.00;;;;;;;46.54;13.18;94203.50;5116985;28;20048;-48
2021/06/22 13:25:01;;;;;;;26.75;7.30;;;;;;;46.63;13.91;94211.44;5116599;28;20844;-53
2021/06/22 13:27:34;;;;;;;22.77;7.20;;;;;;;46.41;13.38;94218.03;5116434;28;20062;-50
2021/06/22 13:30:05;;;;;;;26.65;6.32;;;;;;;46.69;13.16;94209.31;5117100;28;20052;-49
2021/06/22 13:32:37;;;;;;;15.68;6.18;;;;;;;46.79;13.82;94223.50;5116903;28;20050;-51
2021/06/22 13:35:10;;;;;;;20.40;6.82;;;;;;;46.79;14.63;94224.25;5116747;28;20362;-50
2021/06/22 13:37:57;;;;;;;25.45;6.40;;;;;;;46.53;15.23;94218.59;5116675;28;20054;-51
2021/06/22 13:40:26;;;;;;;20.33;6.65;;;;;;;46.48;15.39;94217.41;5116889;28;20323;-50
2021/06/22 13:43:14;;;;;;;24.85;6.82;;;;;;;46.37;15.95;94212.03;5116562;28;20438;-51
2021/06/22 13:45:50;;;;;;;20.30;6.78;;;;;;;46.09;16.09;94212.44;5109456;28;20500;-49
2021/06/22 13:48:26;;;;;;;15.63;6.10;;;;;;;45.84;16.62;94206.19;5114614;28;20059;-51
2021/06/22 13:51:04;;;;;;;16.48;6.70;;;;;;;46.07;15.99;94207.44;5116582;28;20050;-50
2021/06/22 13:53:46;;;;;;;18.35;6.57;;;;;;;46.01;16.22;94203.22;5116572;28;20052;-49
2021/06/22 13:56:16;;;;;;;16.25;6.68;;;;;;;45.88;16.80;94211.41;5115955;28;20040;-53
2021/06/22 13:58:44;;;;;;;24.73;7.50;;;;;;;45.97;16.29;94209.03;5116079;28;20473;-53
2021/06/22 14:01:14;;;;;;;15.90;6.40;;;;;;;45.86;16.43;94197.38;5116425;28;20055;-51
2021/06/22 14:03:41;;;;;;;17.98;9.05;;;;;;;45.96;16.28;94201.25;5116427;28;20054;-53
2021/06/22 14:06:08;;;;;;;32.20;15.35;;;;;;;46.04;15.85;94200.16;5115914;28;20048;-50
2021/06/22 14:08:35;;;;;;;19.38;8.27;;;;;;;46.01;16.04;94197.69;5098146;28;20433;-53
2021/06/22 14:11:03;;;;;;;20.30;7.32;;;;;;;46.03;15.65;94190.38;5116255;28;20048;-48
2021/06/22 14:13:30;;;;;;;17.17;7.00;;;;;;;46.05;16.21;94203.66;5116309;28;20050;-51
2021/06/22 14:15:59;;;;;;;19.23;7.07;;;;;;;45.98;15.91;94209.78;5115853;28;20044;-50
2021/06/22 14:18:27;;;;;;;17.40;6.35;;;;;;;46.04;15.38;94204.94;5114766;28;20047;-50
2021/06/22 14:20:55;;;;;;;17.40;6.32;;;;;;;45.90;15.38;94197.84;5115854;28;20044;-52
2021/06/22 14:23:22;;;;;;;16.10;5.95;;;;;;;46.02;15.22;94213.00;5115941;28;20772;-50
2021/06/22 14:25:50;;;;;;;20.98;6.60;;;;;;;46.14;15.10;94211.59;5115711;28;20063;-49
2021/06/22 14:28:18;;;;;;;21.05;6.50;;;;;;;46.26;15.14;94212.94;5114330;28;20055;-50
2021/06/22 14:30:50;;;;;;;15.48;6.30;;;;;;;46.21;15.30;94213.75;5115837;28;20454;-50
2021/06/22 14:33:18;;;;;;;21.67;6.95;;;;;;;46.02;15.95;94216.50;5115978;28;20044;-50
2021/06/22 14:35:46;;;;;;;24.30;6.85;;;;;;;45.95;15.41;94213.56;5115832;28;20046;-51
2021/06/22 14:38:14;;;;;;;25.42;7.50;;;;;;;39.47;23.24;94208.91;5105331;28;20465;-45